Time;durP1;ratioP1;P1;durP2;ratioP2;P2;SDS_P1;SDS_P2;PMS_P1;PMS_P2;Temp;Humidity;BMP_temperature;BMP_pressure;BME280_temperature;BME280_humidity;BME280_pressure;Samples;Min_cycle;Max_cycle;Signal;HPM_P1;HPM_P2
2021/04/02 00:00:14;;;;;;;13.52;7.85;;;;;;;4.85;90.73;102051.09;5055130;28;20041;-79
2021/04/02 00:02:40;;;;;;;15.27;8.23;;;;;;;4.83;91.65;102057.47;5049852;28;20043;-82
2021/04/02 00:05:07;;;;;;;17.08;7.75;;;;;;;4.74;90.37;102053.56;5041242;28;20045;-81
2021/04/02 00:07:32;;;;;;;17.05;9.35;;;;;;;4.57;91.95;102054.63;5047853;28;20036;-84
2021/04/02 00:09:58;;;;;;;11.38;8.13;;;;;;;4.71;90.99;102054.63;5047254;28;20071;-81
2021/04/02 00:12:24;;;;;;;15.57;8.45;;;;;;;4.68;91.78;102054.81;5031126;28;20033;-82
2021/04/02 00:14:49;;;;;;;13.43;7.82;;;;;;;4.76;93.13;102057.00;5031652;28;20044;-79
2021/04/02 00:17:16;;;;;;;13.68;8.07;;;;;;;4.50;91.96;102054.16;5027132;28;20370;-81
2021/04/02 00:19:42;;;;;;;14.60;8.13;;;;;;;4.67;92.99;102053.13;5047933;28;20047;-81
2021/04/02 00:22:08;;;;;;;14.02;8.15;;;;;;;4.50;92.79;102056.81;5028200;28;20040;-79
2021/04/02 00:24:35;;;;;;;14.88;8.30;;;;;;;4.42;92.68;102052.91;5030451;28;20053;-80
2021/04/02 00:27:00;;;;;;;14.88;8.88;;;;;;;4.50;92.07;102048.84;5002012;28;20041;-83
2021/04/02 00:29:25;;;;;;;14.27;8.07;;;;;;;4.35;93.09;102046.28;5033324;28;20045;-81
2021/04/02 00:31:51;;;;;;;16.40;8.00;;;;;;;4.44;93.02;102051.03;5047286;28;20037;-83
2021/04/02 00:34:18;;;;;;;15.77;8.70;;;;;;;4.30;93.84;102046.53;5023394;28;20032;-80
2021/04/02 00:36:43;;;;;;;13.43;8.48;;;;;;;4.32;94.71;102051.78;5017881;28;20040;-84
2021/04/02 00:39:09;;;;;;;14.93;7.75;;;;;;;4.51;93.01;102042.56;5030481;28;20037;-83
2021/04/02 00:41:34;;;;;;;14.55;8.73;;;;;;;4.33;93.56;102053.47;5047158;28;20041;-84
2021/04/02 00:44:00;;;;;;;15.70;8.35;;;;;;;4.53;94.07;102050.44;5036420;28;20065;-83
2021/04/02 00:46:25;;;;;;;13.48;7.47;;;;;;;4.82;92.55;102059.28;5044565;28;20619;-82
2021/04/02 00:48:51;;;;;;;17.60;7.82;;;;;;;4.41;91.76;102043.25;5025749;28;20124;-81
2021/04/02 00:51:25;;;;;;;15.57;8.60;;;;;;;4.45;94.00;102050.91;5010893;28;20489;-81
2021/04/02 00:53:51;;;;;;;11.55;7.47;;;;;;;4.65;92.81;102039.06;5045734;28;20045;-83
2021/04/02 00:56:16;;;;;;;14.48;7.88;;;;;;;4.48;92.56;102048.06;5031320;28;20511;-79
2021/04/02 00:58:43;;;;;;;13.25;8.43;;;;;;;4.45;94.09;102042.09;5031021;28;20075;-81
2021/04/02 01:01:11;;;;;;;19.83;8.60;;;;;;;4.45;92.71;102044.75;5045976;28;20147;-82
2021/04/02 01:03:37;;;;;;;11.85;7.70;;;;;;;4.49;93.19;102043.63;5032136;28;20064;-77
2021/04/02 01:06:06;;;;;;;16.08;8.57;;;;;;;4.35;93.19;102047.13;5027383;28;20354;-83
2021/04/02 01:08:36;;;;;;;15.93;7.53;;;;;;;4.32;93.10;102047.31;5043723;28;20061;-84
2021/04/02 01:11:21;;;;;;;14.48;8.73;;;;;;;4.21;94.36;102050.63;5043829;28;20056;-81
2021/04/02 01:13:51;;;;;;;14.45;7.93;;;;;;;4.12;94.58;102050.31;5014442;28;20382;-83
2021/04/02 01:16:16;;;;;;;16.08;8.43;;;;;;;4.15;95.70;102047.47;5023272;28;20038;-83
2021/04/02 01:19:11;;;;;;;12.20;7.93;;;;;;;4.13;94.04;102052.03;5030938;28;20516;-83
2021/04/02 01:21:55;;;;;;;15.70;7.97;;;;;;;4.01;94.72;102048.28;5040235;28;20060;-79
2021/04/02 01:24:20;;;;;;;13.70;7.93;;;;;;;4.15;96.13;102048.31;5028624;28;20067;-83
2021/04/02 01:27:05;;;;;;;17.20;8.20;;;;;;;4.05;95.24;102061.28;5048962;28;20486;-81
2021/04/02 01:29:33;;;;;;;14.50;7.72;;;;;;;3.91;96.46;102047.13;5047535;28;20037;-81
2021/04/02 01:32:00;;;;;;;12.73;7.22;;;;;;;4.21;96.65;102042.63;5048419;28;20041;-82
2021/04/02 01:34:33;;;;;;;13.48;7.07;;;;;;;4.18;95.68;102047.28;5038333;28;20041;-79
2021/04/02 01:37:06;;;;;;;15.77;7.63;;;;;;;4.26;96.57;102053.84;5026702;28;20401;-82
2021/04/02 01:39:34;;;;;;;11.35;6.47;;;;;;;4.21;94.78;102050.63;5029383;28;20048;-79
2021/04/02 01:42:03;;;;;;;15.13;6.13;;;;;;;4.18;95.54;102050.78;5029229;28;20041;-80
2021/04/02 01:44:31;;;;;;;11.57;6.30;;;;;;;4.23;95.20;102055.81;5043769;28;20033;-81
2021/04/02 01:46:58;;;;;;;14.93;6.57;;;;;;;4.33;95.56;102048.16;5047231;28;20374;-79
2021/04/02 01:49:24;;;;;;;15.35;6.22;;;;;;;4.33;95.16;102042.84;5013491;28;20048;-82
2021/04/02 01:51:51;;;;;;;12.93;6.40;;;;;;;4.28;95.20;102049.28;5029668;28;20122;-81
2021/04/02 01:54:20;;;;;;;14.40;5.78;;;;;;;4.24;95.50;102045.09;5028489;28;20563;-79
2021/04/02 01:56:50;;;;;;;17.23;5.93;;;;;;;4.20;96.24;102046.25;5048886;28;20056;-84
2021/04/02 01:59:17;;;;;;;15.30;6.40;;;;;;;4.24;95.72;102045.09;5032716;28;20517;-80
2021/04/02 02:01:43;;;;;;;14.63;5.72;;;;;;;4.28;96.12;102048.44;5046295;28;20048;-84
2021/04/02 02:04:09;;;;;;;17.42;5.60;;;;;;;4.35;95.73;102040.97;5028907;28;20045;-79
2021/04/02 02:06:35;;;;;;;11.65;5.20;;;;;;;4.48;94.92;102048.06;5029152;28;20033;-80
2021/04/02 02:09:09;;;;;;;14.50;4.97;;;;;;;4.44;94.90;102048.38;5023990;28;20064;-78
2021/04/02 02:11:35;;;;;;;12.07;4.97;;;;;;;4.46;95.15;102043.78;5050504;28;20045;-83
2021/04/02 02:14:07;;;;;;;13.43;5.60;;;;;;;4.55;95.14;102042.41;5026678;28;20090;-78
2021/04/02 02:16:33;;;;;;;12.25;4.68;;;;;;;4.53;94.07;102035.34;5045692;28;20045;-81
2021/04/02 02:19:00;;;;;;;9.68;4.40;;;;;;;4.50;95.31;102032.88;5034085;28;20044;-82
2021/04/02 02:21:27;;;;;;;12.98;4.93;;;;;;;4.42;94.99;102042.28;5015149;28;20042;-79
2021/04/02 02:23:54;;;;;;;11.73;5.20;;;;;;;4.45;94.98;102036.78;5048765;28;20404;-82
2021/04/02 02:26:20;;;;;;;13.27;4.70;;;;;;;4.40;94.51;102030.88;5034609;28;20041;-80
2021/04/02 02:28:46;;;;;;;14.18;4.95;;;;;;;4.65;95.06;102036.41;5033244;28;20045;-83
2021/04/02 02:31:12;;;;;;;10.85;4.63;;;;;;;4.38;94.26;102033.66;5048040;28;20506;-82
2021/04/02 02:33:38;;;;;;;15.27;4.82;;;;;;;4.41;94.59;102035.28;5032274;28;20405;-81
2021/04/02 02:36:03;;;;;;;15.85;4.93;;;;;;;4.49;94.71;102033.84;5032375;28;20037;-79
2021/04/02 02:38:30;;;;;;;13.20;4.43;;;;;;;4.39;94.60;102038.00;5032498;28;20044;-82
2021/04/02 02:40:56;;;;;;;11.98;4.90;;;;;;;4.57;94.21;102043.97;5033141;28;20144;-84
2021/04/02 02:43:22;;;;;;;9.45;3.97;;;;;;;4.59;92.84;102046.56;5049180;28;20044;-80
2021/04/02 02:45:47;;;;;;;14.52;4.75;;;;;;;4.50;94.18;102050.66;5051160;28;20053;-79
2021/04/02 02:48:13;;;;;;;10.25;4.40;;;;;;;4.48;93.21;102044.56;5031275;28;20072;-80
2021/04/02 02:50:43;;;;;;;11.35;4.13;;;;;;;4.40;93.50;102049.47;5031317;28;20036;-81
2021/04/02 02:53:10;;;;;;;13.70;4.32;;;;;;;4.33;94.18;102042.84;5048707;28;20096;-79
2021/04/02 02:55:40;;;;;;;10.05;4.43;;;;;;;4.39;94.15;102051.28;5030557;28;20080;-81
2021/04/02 02:58:08;;;;;;;10.60;4.28;;;;;;;4.29;93.42;102042.19;5048512;28;20095;-81
2021/04/02 03:00:39;;;;;;;10.68;4.32;;;;;;;4.27;94.07;102044.06;5056102;28;20041;-83
2021/04/02 03:03:15;;;;;;;8.40;4.18;;;;;;;4.35;93.17;102046.28;5020751;28;20045;-84
2021/04/02 03:05:46;;;;;;;11.00;4.15;;;;;;;4.34;92.54;102050.72;5019656;28;20041;-83
2021/04/02 03:08:15;;;;;;;14.25;4.55;;;;;;;4.20;92.60;102050.69;5008570;28;20049;-81
2021/04/02 03:10:40;;;;;;;17.02;4.90;;;;;;;4.19;93.54;102047.19;5046193;28;20075;-79
2021/04/02 03:13:06;;;;;;;11.05;4.40;;;;;;;4.16;93.32;102051.84;5030769;28;20040;-82
2021/04/02 03:15:33;;;;;;;12.13;4.38;;;;;;;4.21;93.90;102044.44;5043656;28;20098;-85
2021/04/02 03:18:06;;;;;;;12.25;4.85;;;;;;;4.17;93.47;102054.41;5048600;28;20068;-81
2021/04/02 03:20:38;;;;;;;12.45;4.57;;;;;;;3.87;93.90;102041.13;5027913;28;20045;-82
2021/04/02 03:23:10;;;;;;;11.93;4.38;;;;;;;3.95;94.72;102049.50;5044148;28;20044;-82
2021/04/02 03:25:39;;;;;;;10.85;4.50;;;;;;;3.79;95.50;102054.84;5028284;28;20041;-84
2021/04/02 03:28:06;;;;;;;11.65;4.43;;;;;;;3.87;95.25;102056.22;5013024;28;20040;-82
2021/04/02 03:30:32;;;;;;;14.00;5.05;;;;;;;3.92;94.79;102060.31;5047304;28;20040;-81
2021/04/02 03:33:23;;;;;;;12.27;4.90;;;;;;;3.95;95.29;102057.47;5028991;28;20502;-80
2021/04/02 03:35:54;;;;;;;10.02;4.85;;;;;;;4.08;95.46;102057.59;5028390;28;20072;-80
2021/04/02 03:38:21;;;;;;;11.02;4.75;;;;;;;4.03;94.11;102057.03;5049262;28;20047;-84
2021/04/02 03:40:51;;;;;;;11.82;4.72;;;;;;;3.93;94.66;102058.50;5043983;28;20063;-81
2021/04/02 03:43:17;;;;;;;11.60;4.60;;;;;;;3.81;95.84;102058.28;5045333;28;20504;-82
2021/04/02 03:45:46;;;;;;;14.88;5.40;;;;;;;3.80;96.50;102059.25;5010911;28;20049;-81
2021/04/02 03:48:14;;;;;;;11.10;4.68;;;;;;;4.04;95.55;102058.72;5030872;28;20063;-77
2021/04/02 03:50:41;;;;;;;11.63;4.85;;;;;;;4.00;95.06;102057.19;5054900;28;20052;-80
2021/04/02 03:53:21;;;;;;;11.63;4.43;;;;;;;3.97;95.22;102062.69;5033069;28;20477;-80
2021/04/02 03:55:50;;;;;;;12.43;4.43;;;;;;;3.96;95.44;102063.63;5028354;28;20053;-81
2021/04/02 03:58:22;;;;;;;;;;;;;;;3.86;95.37;102065.16;5047377;28;20102;-83
2021/04/02 04:00:55;;;;;;;14.45;4.55;;;;;;;3.63;96.38;102059.38;5031175;28;20395;-80
2021/04/02 04:03:23;;;;;;;15.00;5.35;;;;;;;3.70;96.75;102060.72;5043712;28;20520;-82
2021/04/02 04:05:52;;;;;;;13.95;4.90;;;;;;;3.71;96.18;102061.56;5052308;28;20060;-80
2021/04/02 04:08:20;;;;;;;13.40;4.90;;;;;;;4.10;95.14;102063.69;5030238;28;20041;-81
2021/04/02 04:10:48;;;;;;;12.82;5.28;;;;;;;3.82;95.01;102065.28;5048800;28;20053;-81
2021/04/02 04:13:16;;;;;;;11.27;4.50;;;;;;;3.68;96.17;102067.03;5050854;28;20532;-80
2021/04/02 04:15:43;;;;;;;14.68;5.07;;;;;;;3.61;96.96;102063.91;5053426;28;20101;-78
2021/04/02 04:18:13;;;;;;;15.02;4.57;;;;;;;3.66;97.22;102069.81;5052935;28;20072;-81
2021/04/02 04:20:41;;;;;;;11.40;4.30;;;;;;;3.89;96.31;102068.47;5011739;28;20065;-78
2021/04/02 04:23:07;;;;;;;10.05;3.90;;;;;;;3.82;95.81;102073.25;5050472;28;20073;-77
2021/04/02 04:25:34;;;;;;;13.18;4.18;;;;;;;3.84;95.82;102067.88;5029564;28;20136;-80
2021/04/02 04:28:01;;;;;;;13.63;4.45;;;;;;;3.77;96.09;102067.38;5029828;28;20052;-80
2021/04/02 04:30:29;;;;;;;11.25;4.57;;;;;;;3.67;96.45;102065.34;5046714;28;20042;-80
2021/04/02 04:32:59;;;;;;;12.77;4.57;;;;;;;3.87;96.20;102077.47;5032238;28;20139;-78
2021/04/02 04:35:26;;;;;;;13.98;4.75;;;;;;;3.81;96.38;102073.38;5013425;28;20417;-82
2021/04/02 04:37:52;;;;;;;12.63;4.63;;;;;;;3.96;96.37;102079.56;5030369;28;20046;-80
2021/04/02 04:40:22;;;;;;;11.23;4.78;;;;;;;3.98;96.23;102078.53;5043911;28;20041;-81
2021/04/02 04:42:48;;;;;;;13.02;4.82;;;;;;;3.93;95.93;102080.59;5045821;28;20151;-81
2021/04/02 04:45:19;;;;;;;13.35;4.07;;;;;;;4.04;95.97;102080.00;5031408;28;20037;-79
2021/04/02 04:47:45;;;;;;;13.02;4.88;;;;;;;4.15;95.31;102080.22;5040599;28;20041;-80
2021/04/02 04:50:11;;;;;;;12.30;5.00;;;;;;;4.11;95.28;102078.66;5024073;28;20037;-81
2021/04/02 04:52:43;;;;;;;10.35;4.57;;;;;;;4.11;95.94;102081.31;5027160;28;20396;-82
2021/04/02 04:55:10;;;;;;;15.98;6.32;;;;;;;4.11;96.35;102075.16;5024015;28;20106;-80
2021/04/02 04:57:38;;;;;;;16.38;11.70;;;;;;;3.96;96.05;102076.91;5027129;28;20048;-81
2021/04/02 05:00:06;;;;;;;16.85;9.30;;;;;;;4.00;96.65;102078.44;5011585;28;20086;-81
2021/04/02 05:02:33;;;;;;;14.30;5.90;;;;;;;4.09;96.57;102075.25;5031462;28;20037;-80
2021/04/02 05:05:00;;;;;;;13.75;5.93;;;;;;;4.04;96.76;102078.19;5027036;28;20128;-76
2021/04/02 05:07:27;;;;;;;11.13;5.55;;;;;;;4.27;95.87;102075.97;5014335;28;20037;-78
2021/04/02 05:09:56;;;;;;;10.95;5.43;;;;;;;4.30;95.21;102081.09;5047000;28;20056;-80
2021/04/02 05:12:23;;;;;;;13.88;7.15;;;;;;;4.19;95.99;102076.41;5017831;28;20037;-79
2021/04/02 05:14:51;;;;;;;20.00;9.95;;;;;;;4.24;95.59;102092.94;5046022;28;20106;-79
2021/04/02 05:17:18;;;;;;;17.45;7.78;;;;;;;4.26;95.95;102084.88;5024738;28;20048;-80
2021/04/02 05:19:44;;;;;;;12.00;6.20;;;;;;;4.36;95.85;102082.53;5050101;28;20049;-80
2021/04/02 05:22:09;;;;;;;12.80;5.95;;;;;;;4.34;95.71;102093.22;5029636;28;20045;-80
2021/04/02 05:24:36;;;;;;;13.65;6.80;;;;;;;4.40;95.72;102097.31;5045242;28;20049;-79
2021/04/02 05:27:06;;;;;;;11.82;7.50;;;;;;;4.36;94.80;102098.47;5043507;28;20543;-81
2021/04/02 05:29:32;;;;;;;15.85;7.38;;;;;;;4.33;94.82;102106.63;5029633;28;20033;-79
2021/04/02 05:31:58;;;;;;;16.20;7.82;;;;;;;4.36;94.77;102111.75;5045150;28;20052;-84
2021/04/02 05:34:23;;;;;;;14.15;8.40;;;;;;;4.26;95.10;102108.81;5030842;28;20039;-81
2021/04/02 05:36:49;;;;;;;13.10;7.60;;;;;;;4.40;95.04;102107.97;5048945;28;20045;-80
2021/04/02 05:39:14;;;;;;;13.27;6.55;;;;;;;4.34;94.34;102103.00;5041607;28;20045;-82
2021/04/02 05:41:52;;;;;;;13.30;6.88;;;;;;;4.36;94.64;102106.44;5029633;28;20080;-80
2021/04/02 05:44:25;;;;;;;11.20;6.43;;;;;;;4.45;93.38;102113.88;5029217;28;20069;-84
2021/04/02 05:46:52;;;;;;;14.40;6.00;;;;;;;4.46;92.90;102102.28;5044231;28;20049;-82
2021/04/02 05:49:20;;;;;;;11.45;6.40;;;;;;;4.39;92.92;102106.25;5046588;28;20501;-80
2021/04/02 05:51:48;;;;;;;11.67;6.33;;;;;;;4.44;92.68;102109.50;5012509;28;20060;-85
2021/04/02 05:54:19;;;;;;;12.10;5.82;;;;;;;4.44;92.43;102117.47;5044402;28;20041;-79
2021/04/02 05:56:45;;;;;;;16.15;7.07;;;;;;;4.37;92.40;102121.44;5046770;28;20058;-82
2021/04/02 05:59:12;;;;;;;9.25;5.78;;;;;;;4.35;92.54;102115.38;5044004;28;20377;-84
2021/04/02 06:01:38;;;;;;;10.82;7.35;;;;;;;4.45;93.00;102119.19;5047436;28;20075;-81
2021/04/02 06:04:03;;;;;;;12.68;6.35;;;;;;;4.54;92.52;102107.97;5025495;28;20045;-82
2021/04/02 06:06:30;;;;;;;8.65;6.35;;;;;;;4.43;92.75;102113.97;5024628;28;20037;-80
2021/04/02 06:08:57;;;;;;;14.52;7.20;;;;;;;4.48;92.83;102106.56;5026986;28;20052;-82
2021/04/02 06:11:22;;;;;;;13.48;7.18;;;;;;;4.51;92.37;102116.16;5026784;28;20079;-82
2021/04/02 06:13:48;;;;;;;14.23;6.20;;;;;;;4.52;91.85;102113.41;5044984;28;20063;-79
2021/04/02 06:16:14;;;;;;;11.25;6.38;;;;;;;4.48;91.88;102113.66;5043596;28;20067;-80
2021/04/02 06:18:41;;;;;;;11.10;5.88;;;;;;;4.59;92.24;102113.03;5033424;28;20119;-80
2021/04/02 06:21:07;;;;;;;11.82;5.50;;;;;;;4.56;91.74;102108.75;5031230;28;20503;-86
2021/04/02 06:23:36;;;;;;;12.07;5.50;;;;;;;4.50;92.28;102117.09;5048051;28;20049;-82
2021/04/02 06:26:10;;;;;;;13.40;5.80;;;;;;;4.54;92.68;102105.31;5030521;28;20470;-84
2021/04/02 06:28:38;;;;;;;14.60;5.90;;;;;;;4.56;91.65;102103.44;5030689;28;20075;-81
2021/04/02 06:31:06;;;;;;;15.10;6.95;;;;;;;4.69;91.71;102114.16;5024844;28;20041;-82
2021/04/02 06:33:52;;;;;;;14.75;8.25;;;;;;;4.69;91.72;102107.06;5043523;28;20049;-80
2021/04/02 06:36:25;;;;;;;13.93;6.20;;;;;;;4.73;91.07;102111.25;5033759;28;20072;-83
2021/04/02 06:39:04;;;;;;;10.13;5.20;;;;;;;4.70;90.66;102122.06;5049873;28;20044;-83
2021/04/02 06:41:32;;;;;;;12.50;6.20;;;;;;;4.69;90.41;102123.03;5045441;28;20040;-80
2021/04/02 06:44:01;;;;;;;13.25;5.15;;;;;;;4.65;90.06;102116.16;5022678;28;20076;-80
2021/04/02 06:46:29;;;;;;;13.97;5.03;;;;;;;4.75;90.15;102114.66;5041624;28;20045;-83
2021/04/02 06:49:10;;;;;;;12.85;4.63;;;;;;;4.92;89.70;102112.75;5029421;28;20472;-77
2021/04/02 06:51:38;;;;;;;15.13;4.85;;;;;;;4.84;88.73;102107.91;5043031;28;20034;-84
2021/04/02 06:54:05;;;;;;;14.82;4.45;;;;;;;4.73;89.07;102119.22;5023871;28;20041;-83
2021/04/02 06:56:32;;;;;;;11.15;3.83;;;;;;;4.88;88.69;102108.59;5024835;28;20115;-80
2021/04/02 06:58:59;;;;;;;11.85;4.20;;;;;;;4.79;88.47;102112.66;5024967;28;20052;-86
2021/04/02 07:01:28;;;;;;;12.13;3.88;;;;;;;4.89;88.04;102112.94;5032106;28;20045;-82
2021/04/02 07:03:54;;;;;;;10.93;4.32;;;;;;;4.89;87.86;102112.94;4997360;28;20041;-84
2021/04/02 07:06:21;;;;;;;9.65;4.22;;;;;;;4.86;87.62;102105.16;5047141;28;20041;-83
2021/04/02 07:08:47;;;;;;;10.27;4.18;;;;;;;4.87;87.42;102114.88;5045802;28;20041;-77
2021/04/02 07:11:16;;;;;;;8.15;3.83;;;;;;;4.95;86.56;102116.09;5017297;28;20045;-85
2021/04/02 07:13:53;;;;;;;12.82;4.43;;;;;;;4.98;86.74;102117.72;5044887;28;21862;-86
2021/04/02 07:16:20;;;;;;;8.93;3.85;;;;;;;4.97;86.61;102121.31;5026788;28;20068;-79
2021/04/02 07:18:46;;;;;;;11.07;4.10;;;;;;;4.96;86.07;102124.94;5028375;28;20157;-81
2021/04/02 07:21:13;;;;;;;8.98;3.83;;;;;;;4.89;86.45;102139.53;5027530;28;20553;-82
2021/04/02 07:23:40;;;;;;;9.55;3.67;;;;;;;4.89;86.60;102131.56;5012204;28;20076;-78
2021/04/02 07:26:07;;;;;;;11.23;3.85;;;;;;;4.91;85.80;102137.66;5040224;28;20045;-82
2021/04/02 07:28:33;;;;;;;9.75;3.50;;;;;;;5.07;85.54;102150.88;5023365;28;20043;-84
2021/04/02 07:30:59;;;;;;;8.60;3.53;;;;;;;5.07;84.75;102135.75;5046299;28;20048;-81
2021/04/02 07:33:26;;;;;;;12.20;3.78;;;;;;;5.13;84.69;102151.34;5027155;28;20040;-85
2021/04/02 07:35:55;;;;;;;14.23;3.15;;;;;;;5.14;84.02;102142.38;5046160;28;20049;-80
2021/04/02 07:38:23;;;;;;;;;;;;;;;5.25;84.63;102149.72;5060158;28;20064;-80
2021/04/02 07:40:49;;;;;;;11.05;3.92;;;;;;;5.23;83.66;102145.44;5030862;28;19912;-80
2021/04/02 07:43:14;;;;;;;8.25;3.53;;;;;;;5.29;84.38;102156.53;5030198;28;20060;-81
2021/04/02 07:45:40;;;;;;;11.40;3.97;;;;;;;5.41;84.07;102157.59;5045547;28;20040;-80
2021/04/02 07:48:25;;;;;;;10.90;3.40;;;;;;;5.55;83.42;102154.91;5030309;28;20041;-85
2021/04/02 07:50:57;;;;;;;8.18;3.38;;;;;;;5.59;82.68;102148.41;5041729;28;20041;-83
2021/04/02 07:53:26;;;;;;;10.40;3.67;;;;;;;5.59;82.14;102142.25;5024820;28;20053;-82
2021/04/02 07:56:02;;;;;;;9.97;3.53;;;;;;;5.63;81.89;102143.75;5048319;28;20044;-85
2021/04/02 07:58:30;;;;;;;14.85;4.15;;;;;;;5.71;82.22;102145.91;5046665;28;20284;-83
2021/04/02 08:00:57;;;;;;;10.50;3.72;;;;;;;5.72;81.11;102142.28;5049289;28;20067;-82
2021/04/02 08:03:25;;;;;;;10.43;3.30;;;;;;;5.80;80.91;102139.97;5030629;28;20053;-79
2021/04/02 08:05:55;;;;;;;8.25;3.33;;;;;;;5.82;80.69;102144.25;5026251;28;20394;-82
2021/04/02 08:08:23;;;;;;;19.02;4.10;;;;;;;5.73;80.09;102142.19;5046495;28;20033;-80
2021/04/02 08:11:09;;;;;;;8.48;3.47;;;;;;;5.87;80.93;102135.97;5047316;28;20114;-81
2021/04/02 08:14:06;;;;;;;14.85;5.28;;;;;;;5.89;80.89;102134.91;5046204;28;20040;-87
2021/04/02 08:16:31;;;;;;;14.25;5.90;;;;;;;6.00;80.52;102147.56;5043301;28;20937;-80
2021/04/02 08:19:05;;;;;;;10.23;3.92;;;;;;;5.95;79.24;102154.97;5047720;28;20068;-82
2021/04/02 08:21:33;;;;;;;14.75;4.03;;;;;;;5.97;79.65;102158.41;5046168;28;20418;-83
2021/04/02 08:24:00;;;;;;;7.25;3.40;;;;;;;6.01;79.65;102164.38;5046756;28;20532;-83
2021/04/02 08:26:33;;;;;;;10.68;3.88;;;;;;;6.01;79.30;102175.94;5045998;28;20068;-84
2021/04/02 08:29:05;;;;;;;9.75;3.97;;;;;;;6.13;78.97;102173.38;5029773;28;20041;-82
2021/04/02 08:31:31;;;;;;;8.88;4.38;;;;;;;6.09;78.39;102178.06;5032740;28;20045;-85
2021/04/02 08:33:58;;;;;;;12.73;5.88;;;;;;;6.07;78.88;102175.53;5047203;28;20051;-84
2021/04/02 08:36:25;;;;;;;12.05;5.72;;;;;;;6.12;78.23;102166.34;5046049;28;20044;-81
2021/04/02 08:38:53;;;;;;;9.63;4.45;;;;;;;6.06;77.54;102168.47;5045710;28;20056;-83
2021/04/02 08:41:20;;;;;;;8.25;4.45;;;;;;;6.00;78.26;102168.00;5028708;28;20097;-81
2021/04/02 08:43:45;;;;;;;13.70;4.97;;;;;;;6.12;78.79;102161.03;5044614;28;20518;-82
2021/04/02 08:46:14;;;;;;;11.65;5.22;;;;;;;6.15;77.52;102163.47;5046576;28;20080;-86
2021/04/02 08:48:39;;;;;;;10.73;6.00;;;;;;;6.26;77.92;102171.63;5043015;28;20481;-89
2021/04/02 08:51:05;;;;;;;9.93;4.60;;;;;;;6.27;77.10;102163.53;5015495;28;20163;-81
2021/04/02 08:53:40;;;;;;;11.30;6.55;;;;;;;6.24;77.32;102165.53;5045659;28;20079;-90
2021/04/02 08:56:06;;;;;;;11.18;5.07;;;;;;;6.32;77.75;102163.19;5043722;28;20642;-82
2021/04/02 08:58:34;;;;;;;12.98;5.30;;;;;;;6.33;77.94;102165.78;5029284;28;20041;-85
2021/04/02 09:01:01;;;;;;;17.30;10.25;;;;;;;6.40;76.81;102162.69;5048108;28;20409;-82
2021/04/02 09:03:29;;;;;;;10.90;4.40;;;;;;;6.47;77.05;102164.84;5041289;28;20041;-87
2021/04/02 09:05:55;;;;;;;10.82;5.25;;;;;;;6.51;76.55;102171.69;5046273;28;20051;-81
2021/04/02 09:08:21;;;;;;;14.27;5.95;;;;;;;6.54;76.25;102165.28;5048527;28;20037;-79
2021/04/02 09:10:48;;;;;;;11.23;6.82;;;;;;;6.46;76.47;102171.13;5051049;28;20434;-85
2021/04/02 09:13:15;;;;;;;14.43;5.97;;;;;;;6.42;76.80;102169.63;5044088;28;20080;-85
2021/04/02 09:15:45;;;;;;;16.42;6.03;;;;;;;6.38;76.55;102165.44;5049696;28;20122;-82
2021/04/02 09:18:19;;;;;;;13.88;6.22;;;;;;;6.61;77.51;102163.03;5032590;28;20045;-79
2021/04/02 09:20:45;;;;;;;10.48;4.65;;;;;;;6.62;76.33;102159.41;5048730;28;20041;-81
2021/04/02 09:23:12;;;;;;;11.25;4.05;;;;;;;6.61;75.22;102171.88;5053639;28;20052;-82
2021/04/02 09:25:43;;;;;;;10.20;4.40;;;;;;;6.52;74.70;102167.19;5050319;28;20056;-85
2021/04/02 09:28:10;;;;;;;9.15;4.05;;;;;;;6.48;74.37;102169.22;5051699;28;20040;-84
2021/04/02 09:30:37;;;;;;;9.98;4.20;;;;;;;6.53;74.34;102168.88;5054262;28;20048;-86
2021/04/02 09:33:02;;;;;;;9.48;4.18;;;;;;;6.46;74.11;102165.78;5048362;28;20122;-87
2021/04/02 09:35:30;;;;;;;10.95;3.78;;;;;;;6.53;74.92;102144.88;5031375;28;20085;-84
2021/04/02 09:37:56;;;;;;;15.50;4.25;;;;;;;6.53;75.21;102156.44;5050771;28;20055;-85
2021/04/02 09:40:32;;;;;;;13.00;3.78;;;;;;;6.71;73.90;102154.31;5033513;28;20049;-87
2021/04/02 09:42:59;;;;;;;7.25;3.97;;;;;;;6.64;73.43;102152.16;5034144;28;20385;-85
2021/04/02 09:45:27;;;;;;;8.43;4.32;;;;;;;6.52;73.93;102141.38;5026250;28;20060;-85
2021/04/02 09:47:53;;;;;;;9.43;3.65;;;;;;;6.55;74.56;102143.81;5023571;28;20114;-82
2021/04/02 09:50:21;;;;;;;7.18;3.92;;;;;;;6.62;74.66;102138.06;5018223;28;20068;-79
2021/04/02 09:52:48;;;;;;;10.05;4.03;;;;;;;6.68;74.07;102143.00;5050970;28;20135;-79
2021/04/02 09:55:14;;;;;;;11.88;3.95;;;;;;;6.66;74.11;102144.91;5048648;28;20045;-80
2021/04/02 09:57:40;;;;;;;9.60;4.22;;;;;;;6.62;74.15;102138.94;5048833;28;20033;-86
2021/04/02 10:00:11;;;;;;;8.57;2.92;;;;;;;6.66;73.59;102152.91;5050234;28;20381;-89
2021/04/02 10:02:37;;;;;;;5.07;2.67;;;;;;;6.59;74.13;102146.28;5054884;28;20392;-81
2021/04/02 10:05:07;;;;;;;8.15;2.80;;;;;;;6.71;74.46;102148.97;5049123;28;20049;-82
2021/04/02 10:07:33;;;;;;;9.48;2.97;;;;;;;6.63;72.96;102153.97;5033982;28;20048;-83
2021/04/02 10:10:00;;;;;;;8.52;2.83;;;;;;;6.44;72.35;102157.03;5049275;28;20045;-81
2021/04/02 10:12:25;;;;;;;7.95;3.15;;;;;;;6.37;73.82;102160.25;5046563;28;20181;-87
2021/04/02 10:14:51;;;;;;;9.57;4.13;;;;;;;6.51;75.31;102168.16;5013293;28;20529;-84
2021/04/02 10:17:17;;;;;;;10.57;2.92;;;;;;;6.62;74.11;102159.41;5032971;28;20043;-86
2021/04/02 10:19:43;;;;;;;8.82;3.45;;;;;;;6.59;74.38;102172.94;5048346;28;20519;-82
2021/04/02 10:22:09;;;;;;;16.45;4.80;;;;;;;6.54;74.48;102168.81;5033089;28;20045;-83
2021/04/02 10:24:35;;;;;;;13.70;5.32;;;;;;;6.53;74.59;102167.09;5050142;28;20081;-82
2021/04/02 10:27:01;;;;;;;39.70;15.27;;;;;;;6.51;74.79;102157.50;5018222;28;20041;-85
2021/04/02 10:29:27;;;;;;;17.15;8.25;;;;;;;6.53;74.06;102160.88;5051396;28;20041;-82
2021/04/02 10:31:53;;;;;;;15.18;5.50;;;;;;;6.57;74.23;102149.06;5049563;28;20040;-84
2021/04/02 10:34:21;;;;;;;12.95;5.20;;;;;;;6.49;74.28;102154.91;5027899;28;20095;-79
2021/04/02 10:36:47;;;;;;;12.50;3.38;;;;;;;6.54;75.17;102142.13;5032535;28;20055;-82
2021/04/02 10:39:12;;;;;;;60.67;34.20;;;;;;;6.72;75.35;102145.34;5027631;28;20496;-84
2021/04/02 10:41:38;;;;;;;9.82;5.90;;;;;;;6.84;73.54;102151.63;5027568;28;20045;-87
2021/04/02 10:44:03;;;;;;;8.25;3.30;;;;;;;6.86;72.21;102147.06;5052158;28;20037;-80
2021/04/02 10:46:30;;;;;;;11.98;5.45;;;;;;;6.84;72.76;102148.97;5048153;28;20045;-83
2021/04/02 10:48:55;;;;;;;9.20;3.53;;;;;;;6.91;72.34;102142.25;5018577;28;20044;-87
2021/04/02 10:51:25;;;;;;;15.63;9.82;;;;;;;6.97;73.03;102157.81;5050218;28;20136;-84
2021/04/02 10:53:52;;;;;;;15.63;8.93;;;;;;;6.96;72.39;102163.25;5033889;28;20052;-81
2021/04/02 10:56:18;;;;;;;9.43;3.70;;;;;;;6.88;71.62;102160.31;5053105;28;20037;-88
2021/04/02 10:58:43;;;;;;;15.57;4.63;;;;;;;6.98;71.62;102162.19;5011458;28;20056;-82
2021/04/02 11:01:11;;;;;;;9.40;3.40;;;;;;;7.01;71.06;102161.97;5043285;28;20077;-82
2021/04/02 11:03:37;;;;;;;12.43;3.97;;;;;;;7.07;71.71;102159.84;5001443;28;21394;-83
2021/04/02 11:06:02;;;;;;;17.63;9.20;;;;;;;7.13;71.28;102154.06;5049269;28;20120;-79
2021/04/02 11:08:28;;;;;;;14.32;6.70;;;;;;;7.28;70.45;102147.66;5025056;28;20072;-80
2021/04/02 11:10:53;;;;;;;16.05;7.93;;;;;;;7.22;69.69;102134.72;5051931;28;20489;-80
2021/04/02 11:13:20;;;;;;;9.68;4.53;;;;;;;7.24;69.97;102130.97;5060755;28;20045;-79
2021/04/02 11:15:46;;;;;;;19.77;12.02;;;;;;;7.29;69.46;102138.69;5049554;28;20116;-78
2021/04/02 11:18:12;;;;;;;7.72;3.70;;;;;;;7.32;68.43;102141.13;5048281;28;20041;-80
2021/04/02 11:20:37;;;;;;;16.08;11.98;;;;;;;7.45;69.17;102138.41;5014463;28;20396;-82
2021/04/02 11:23:03;;;;;;;10.40;3.45;;;;;;;7.45;67.83;102136.63;5052165;28;20048;-83
2021/04/02 11:25:29;;;;;;;12.77;3.90;;;;;;;7.54;67.95;102143.09;5050099;28;20045;-80
2021/04/02 11:27:56;;;;;;;11.45;3.72;;;;;;;7.59;67.67;102140.94;5016858;28;20076;-81
2021/04/02 11:30:22;;;;;;;9.52;4.20;;;;;;;7.67;68.09;102143.91;5024236;28;20033;-88